Hauptseite
METAR-TAF:

METAR-TAF

Flughäfen :

Ocean County, New Jersey, Vereinigte Staaten

Breite: 39-55-39N, Länge: 074-17-33W, Höhe: 25 m

Beobachtung

Neuester Wetterbericht von vor 17 Minuten, um 01:56 UTC
Wind 6 kt aus West/Nordwest
Temperatur 2°C
Luftfeuchtigkeit 55%
Luftdruck 1021 hPa
Sichtweite: 16.1 km
Himmel klar

METAR: KMJX 160156Z AUTO 30006KT 10SM CLR 02/M06 A3014 RMK AO2 SLP210 T00221056 FZRANO

Zeit: 21:13 (02:13 UTC)


TAF: fehlend

Wetterbeobachtungen und Prognosen von mehr als 4000 Flughäfen (METAR und TAF Bericht).

Die verfügbaren Stationen werden durch gelbe und rote Markierungen auf der Karte dargestellt.

Führen Sie die Maus auf sie, um den Namen der Station zu sehen.

Darauf klicken, um die Beobachtung von Wetterbeobachtungen und Prognosen zu sehen.

Um die Karte zu ändern : klicken Sie auf den grünen Tasten mit einem schwarzen Kreuz Zum Vergrößern, auf den grünen Button mit einem Gedankenstrich zu verkleinern, oder auf die grünen Pfeile für benachbarte Karten.


METAR-TAF: